createdAt,value
2019-03-30T00:00:22.254Z,28.799999
2019-03-30T00:01:22.367Z,29.799999
2019-03-30T00:02:22.487Z,27.9
2019-03-30T00:03:22.591Z,29.299999
2019-03-30T00:04:22.721Z,29.6
2019-03-30T00:05:22.898Z,29.299999
2019-03-30T00:06:22.875Z,29.799999
2019-03-30T00:07:23.000Z,28.5
2019-03-30T00:08:23.113Z,28.299999
2019-03-30T00:09:23.215Z,27.799999
2019-03-30T00:10:23.424Z,29.5
2019-03-30T00:11:23.350Z,28.299999
2019-03-30T00:12:23.479Z,29.200001
2019-03-30T00:13:23.636Z,29.700001
2019-03-30T00:14:23.580Z,28.799999
2019-03-30T00:15:23.732Z,28.5
2019-03-30T00:16:23.682Z,28.9
2019-03-30T00:17:23.803Z,29
2019-03-30T00:18:23.905Z,28.1
2019-03-30T00:19:34.334Z,28.5
2019-03-30T00:20:25.424Z,28.700001
2019-03-30T00:21:24.241Z,28.799999
2019-03-30T00:22:24.351Z,26.9
2019-03-30T00:23:24.465Z,29.4
2019-03-30T00:24:24.569Z,28
2019-03-30T00:25:24.730Z,29.200001
2019-03-30T00:26:24.672Z,29.299999
2019-03-30T00:27:24.780Z,29.799999
2019-03-30T00:28:24.955Z,29.1
2019-03-30T00:29:24.911Z,27.200001
2019-03-30T00:30:25.064Z,30.200001
2019-03-30T00:31:25.208Z,30.799999
2019-03-30T00:32:25.351Z,29.1
2019-03-30T00:33:25.481Z,29.299999
2019-03-30T00:34:25.592Z,29.9
2019-03-30T00:35:25.743Z,30.700001
2019-03-30T00:36:25.858Z,32
2019-03-30T00:37:25.990Z,30.1
2019-03-30T00:38:26.124Z,28.9
2019-03-30T00:39:26.248Z,29.700001
2019-03-30T00:40:26.421Z,30.200001
2019-03-30T00:41:26.375Z,28.200001
2019-03-30T00:42:26.529Z,30.4
2019-03-30T00:43:26.660Z,30.9
2019-03-30T00:44:26.639Z,31
2019-03-30T00:45:26.807Z,30.5
2019-03-30T00:46:26.813Z,30.700001
2019-03-30T00:47:26.800Z,29.5
2019-03-30T00:48:26.789Z,31.1
2019-03-30T00:49:26.991Z,30.299999
2019-03-30T00:50:26.982Z,32.900002
2019-03-30T00:51:26.949Z,32.5
2019-03-30T00:52:27.099Z,32.900002
2019-03-30T00:53:27.237Z,32
2019-03-30T00:54:27.339Z,31.5
2019-03-30T00:55:27.550Z,30.799999
2019-03-30T00:56:27.484Z,32.700001
2019-03-30T00:57:27.598Z,31.9
2019-03-30T00:58:27.708Z,31.5
2019-03-30T00:59:27.832Z,32
2019-03-30T01:00:27.971Z,31.6
2019-03-30T01:01:27.971Z,30.299999
2019-03-30T01:02:28.093Z,29.799999
2019-03-30T01:03:28.196Z,31.700001
2019-03-30T01:04:28.364Z,32.099998
2019-03-30T01:05:28.465Z,31.4
2019-03-30T01:06:28.671Z,31.6
2019-03-30T01:07:28.674Z,31.700001
2019-03-30T01:08:28.629Z,31.799999
2019-03-30T01:09:28.753Z,33.099998
2019-03-30T01:10:28.903Z,29.9
2019-03-30T01:11:28.941Z,32.200001
2019-03-30T01:12:28.883Z,32.299999
2019-03-30T01:13:29.023Z,31
2019-03-30T01:14:29.140Z,32.299999
2019-03-30T01:15:29.282Z,30.9
2019-03-30T01:16:29.414Z,32
2019-03-30T01:17:29.525Z,31.6
2019-03-30T01:18:29.637Z,30.799999
2019-03-30T01:19:29.759Z,31
2019-03-30T01:20:29.942Z,30.9
2019-03-30T01:21:29.923Z,31.200001
2019-03-30T01:22:30.082Z,30.4
2019-03-30T01:23:30.044Z,30.4
2019-03-30T01:24:30.160Z,30.4
2019-03-30T01:25:30.305Z,30.5
2019-03-30T01:26:30.454Z,30.700001
2019-03-30T01:27:30.572Z,31.5
2019-03-30T01:28:30.672Z,31.5
2019-03-30T01:29:30.808Z,30.299999
2019-03-30T01:30:30.898Z,30.4
2019-03-30T01:31:31.815Z,31.299999
2019-03-30T01:32:31.089Z,31.799999
2019-03-30T01:33:32.181Z,30.1
2019-03-30T01:34:31.337Z,31.4
2019-03-30T01:35:31.290Z,31
2019-03-30T01:36:31.419Z,31
2019-03-30T01:37:31.531Z,30.299999
2019-03-30T01:38:32.199Z,30.4
2019-03-30T01:39:31.647Z,29.9
2019-03-30T01:40:31.760Z,30.299999
2019-03-30T01:41:31.882Z,29.4
2019-03-30T01:42:31.976Z,30.799999
2019-03-30T01:43:32.082Z,31.1
2019-03-30T01:44:32.191Z,30.1
2019-03-30T01:45:32.296Z,28.299999
2019-03-30T01:46:32.435Z,29.5
2019-03-30T01:47:32.535Z,29.4
2019-03-30T01:48:32.638Z,31.1
2019-03-30T01:49:32.729Z,30.700001
2019-03-30T01:50:32.835Z,30.6
2019-03-30T01:51:32.995Z,31.9
2019-03-30T01:52:32.929Z,30
2019-03-30T01:53:33.046Z,30.6
2019-03-30T01:54:33.157Z,30.700001
2019-03-30T01:55:33.256Z,29.9
2019-03-30T01:56:33.386Z,29.6
2019-03-30T01:57:33.485Z,29.9
2019-03-30T01:58:33.586Z,30.200001
2019-03-30T01:59:33.694Z,29.299999
2019-03-30T02:00:33.800Z,30.4
2019-03-30T02:01:33.934Z,30.200001
2019-03-30T02:02:34.051Z,30.200001
2019-03-30T02:03:34.180Z,31.5
2019-03-30T02:04:34.290Z,30.700001
2019-03-30T02:05:34.395Z,29.700001
2019-03-30T02:06:34.589Z,29.299999
2019-03-30T02:07:34.554Z,29.4
2019-03-30T02:08:34.661Z,30
2019-03-30T02:09:34.770Z,29.200001
2019-03-30T02:10:34.879Z,29.6
2019-03-30T02:11:35.008Z,30.200001
2019-03-30T02:12:35.149Z,30.299999
2019-03-30T02:13:35.273Z,28.9
2019-03-30T02:14:35.374Z,29
2019-03-30T02:15:35.501Z,29
2019-03-30T02:16:35.636Z,28.4
2019-03-30T02:17:35.774Z,28.9
2019-03-30T02:18:35.983Z,29
2019-03-30T02:19:35.747Z,30.200001
2019-03-30T02:20:36.854Z,29.299999
2019-03-30T02:21:35.988Z,29.200001
2019-03-30T02:22:36.100Z,29.700001
2019-03-30T02:23:36.243Z,28.5
2019-03-30T02:24:36.370Z,29.200001
2019-03-30T02:25:36.468Z,29.4
2019-03-30T02:26:36.607Z,29.9
2019-03-30T02:27:36.714Z,30
2019-03-30T02:28:36.822Z,29.299999
2019-03-30T02:29:36.928Z,28.200001
2019-03-30T02:30:37.025Z,30
2019-03-30T02:31:37.183Z,30.6
2019-03-30T02:32:37.287Z,30.6
2019-03-30T02:33:37.391Z,30.200001
2019-03-30T02:34:37.506Z,32.099998
2019-03-30T02:35:37.612Z,30.799999
2019-03-30T02:36:37.748Z,32.299999
2019-03-30T02:37:37.896Z,31.200001
2019-03-30T02:38:38.009Z,32.099998
2019-03-30T02:39:38.189Z,34
2019-03-30T02:40:38.173Z,32.900002
2019-03-30T02:41:38.361Z,30.799999
2019-03-30T02:42:38.376Z,29.5
2019-03-30T02:43:38.318Z,28.799999
2019-03-30T02:44:38.424Z,29.6
2019-03-30T02:45:38.538Z,30.6
2019-03-30T02:46:38.666Z,30.799999
2019-03-30T02:47:38.826Z,30.5
2019-03-30T02:48:38.829Z,30.5
2019-03-30T02:49:38.932Z,31
2019-03-30T02:50:48.928Z,31.9
2019-03-30T02:51:40.417Z,31.299999
2019-03-30T02:52:39.227Z,31.6
2019-03-30T02:53:39.359Z,33.400002
2019-03-30T02:54:39.531Z,34.200001
2019-03-30T02:55:39.489Z,32.900002
2019-03-30T02:56:39.651Z,34.5
2019-03-30T02:57:39.636Z,33.5
2019-03-30T02:58:39.822Z,33.700001
2019-03-30T02:59:39.792Z,33.5
2019-03-30T03:00:39.905Z,32.299999
2019-03-30T03:01:40.101Z,31.1
2019-03-30T03:02:40.086Z,30.799999
2019-03-30T03:03:40.196Z,31.1
2019-03-30T03:04:40.354Z,29.200001
2019-03-30T03:05:40.478Z,28.4
2019-03-30T03:06:40.686Z,28.6
2019-03-30T03:07:40.653Z,28.799999
2019-03-30T03:08:40.778Z,27.6
2019-03-30T03:09:40.918Z,28.299999
2019-03-30T03:10:41.076Z,27.1
2019-03-30T03:11:41.107Z,27.5
2019-03-30T03:12:41.028Z,27.299999
2019-03-30T03:13:41.179Z,27.299999
2019-03-30T03:14:41.297Z,28.1
2019-03-30T03:15:41.440Z,27.799999
2019-03-30T03:16:41.611Z,28.799999
2019-03-30T03:17:41.577Z,27.5
2019-03-30T03:18:41.708Z,27.200001
2019-03-30T03:19:41.846Z,27.200001
2019-03-30T03:20:41.956Z,27.200001
2019-03-30T03:21:42.159Z,27.4
2019-03-30T03:22:42.167Z,28
2019-03-30T03:23:43.301Z,28.799999
2019-03-30T03:24:42.415Z,28.4
2019-03-30T03:25:42.602Z,26.799999
2019-03-30T03:26:42.622Z,27.200001
2019-03-30T03:27:42.613Z,26.799999
2019-03-30T03:28:42.720Z,25.4
2019-03-30T03:29:43.797Z,26.299999
2019-03-30T03:30:42.918Z,26.1
2019-03-30T03:31:43.061Z,24.799999
2019-03-30T03:32:43.175Z,25.1
2019-03-30T03:33:43.376Z,24.4
2019-03-30T03:34:43.429Z,25.200001
2019-03-30T03:35:43.501Z,24.1
2019-03-30T03:36:43.643Z,24.6
2019-03-30T03:37:45.810Z,25
2019-03-30T03:38:44.642Z,25.1
2019-03-30T03:39:43.756Z,25.700001
2019-03-30T03:40:43.864Z,25.1
2019-03-30T03:41:44.022Z,24.700001
2019-03-30T03:42:45.433Z,27.200001
2019-03-30T03:43:44.663Z,27.200001
2019-03-30T03:44:44.256Z,27
2019-03-30T03:45:44.415Z,26.5
2019-03-30T03:46:44.411Z,27
2019-03-30T03:47:44.510Z,26.799999
2019-03-30T03:48:44.622Z,27.4
2019-03-30T03:49:44.732Z,27.1
2019-03-30T03:50:44.865Z,27.6
2019-03-30T03:51:45.041Z,26.700001
2019-03-30T03:52:44.986Z,27
2019-03-30T03:53:45.195Z,26.1
2019-03-30T03:54:45.217Z,26.799999
2019-03-30T03:55:45.363Z,27.5
2019-03-30T03:56:45.497Z,27.4
2019-03-30T03:57:45.738Z,28.299999
2019-03-30T03:58:45.681Z,27.4
2019-03-30T03:59:45.769Z,28.5
2019-03-30T04:00:45.982Z,27.1
2019-03-30T04:01:45.945Z,27
2019-03-30T04:02:46.083Z,27.4
2019-03-30T04:03:46.279Z,26.9
2019-03-30T04:04:47.551Z,26.9
2019-03-30T04:05:46.294Z,27.9
2019-03-30T04:06:46.415Z,26.6
2019-03-30T04:07:46.550Z,28.4
2019-03-30T04:08:46.800Z,27
2019-03-30T04:09:46.737Z,27.200001
2019-03-30T04:10:47.080Z,27.5
2019-03-30T04:11:47.471Z,25.4
2019-03-30T04:12:47.202Z,26.6
2019-03-30T04:13:47.027Z,27.299999
2019-03-30T04:14:47.125Z,27.9
2019-03-30T04:15:47.233Z,26.9
2019-03-30T04:16:47.349Z,27
2019-03-30T04:17:47.518Z,29
2019-03-30T04:18:48.360Z,27.4
2019-03-30T04:19:47.656Z,29.1
2019-03-30T04:20:47.589Z,27.5
2019-03-30T04:21:47.697Z,27.5
2019-03-30T04:22:47.826Z,27.9
2019-03-30T04:23:47.943Z,27.9
2019-03-30T04:24:49.104Z,27.9
2019-03-30T04:25:48.037Z,27.6
2019-03-30T04:26:48.309Z,26.5
2019-03-30T04:27:48.343Z,27.299999
2019-03-30T04:28:48.265Z,28.299999
2019-03-30T04:29:48.365Z,27
2019-03-30T04:30:48.545Z,26.700001
2019-03-30T04:31:48.571Z,28.1
2019-03-30T04:32:49.548Z,25.5
2019-03-30T04:33:48.505Z,27.799999
2019-03-30T04:34:48.584Z,28.700001
2019-03-30T04:35:48.782Z,27.200001
2019-03-30T04:36:48.723Z,27.799999
2019-03-30T04:37:48.868Z,26.4
2019-03-30T04:38:48.969Z,27.700001
2019-03-30T04:39:49.085Z,27.9
2019-03-30T04:40:49.201Z,26.9
2019-03-30T04:41:49.371Z,26.200001
2019-03-30T04:42:49.361Z,28.700001
2019-03-30T04:43:49.463Z,26.799999
2019-03-30T04:44:49.599Z,27.299999
2019-03-30T04:45:49.712Z,27.700001
2019-03-30T04:46:49.820Z,26.200001
2019-03-30T04:47:49.953Z,26.9
2019-03-30T04:48:50.065Z,27.6
2019-03-30T04:49:50.174Z,26
2019-03-30T04:50:50.267Z,26.799999
2019-03-30T04:51:57.181Z,25.799999
2019-03-30T04:52:51.468Z,27.1
2019-03-30T04:53:50.587Z,26
2019-03-30T04:54:50.689Z,26.799999
2019-03-30T04:55:50.862Z,27.200001
2019-03-30T04:56:50.948Z,26.6
2019-03-30T04:57:51.064Z,27.4
2019-03-30T04:58:51.220Z,26.700001
2019-03-30T04:59:51.337Z,26.4
2019-03-30T05:00:51.441Z,26.9
2019-03-30T05:01:51.539Z,26.4
2019-03-30T05:02:51.675Z,25.9
2019-03-30T05:03:51.798Z,26.200001
2019-03-30T05:04:51.913Z,25.9
2019-03-30T05:05:52.012Z,26.299999
2019-03-30T05:06:52.154Z,25.5
2019-03-30T05:07:52.296Z,27
2019-03-30T05:08:52.430Z,26.6
2019-03-30T05:09:52.529Z,25.299999
2019-03-30T05:10:52.656Z,25.5
2019-03-30T05:11:52.759Z,27.9
2019-03-30T05:12:52.943Z,26.799999
2019-03-30T05:13:52.921Z,26.200001
2019-03-30T05:14:53.057Z,26.1
2019-03-30T05:15:53.217Z,26
2019-03-30T05:16:53.375Z,27.299999
2019-03-30T05:17:53.367Z,26.799999
2019-03-30T05:18:53.335Z,27.9
2019-03-30T05:19:53.525Z,29.200001
2019-03-30T05:20:53.713Z,30.200001
2019-03-30T05:21:53.604Z,27.700001
2019-03-30T05:22:53.713Z,27.799999
2019-03-30T05:23:53.777Z,27.200001
2019-03-30T05:24:53.847Z,27.799999
2019-03-30T05:25:53.941Z,28
2019-03-30T05:26:54.096Z,29
2019-03-30T05:27:54.169Z,25.799999
2019-03-30T05:28:54.237Z,26.299999
2019-03-30T05:29:54.287Z,28.6
2019-03-30T05:30:54.364Z,26.700001
2019-03-30T05:31:54.407Z,27.200001
2019-03-30T05:33:04.837Z,25.200001
2019-03-30T05:33:55.531Z,26.299999
2019-03-30T05:34:54.561Z,25.6
2019-03-30T05:35:54.616Z,26.1
2019-03-30T05:36:54.674Z,25.5
2019-03-30T05:37:54.744Z,24.9
2019-03-30T05:38:54.816Z,26.4
2019-03-30T05:39:54.872Z,25.4
2019-03-30T05:40:54.953Z,25.1
2019-03-30T05:41:55.010Z,26.4
2019-03-30T05:42:55.258Z,26.4
2019-03-30T05:43:55.157Z,26
2019-03-30T05:44:57.745Z,26
2019-03-30T05:45:55.275Z,26.299999
2019-03-30T05:46:55.326Z,25.299999
2019-03-30T05:47:55.396Z,24.1
2019-03-30T05:48:55.694Z,24.200001
2019-03-30T05:49:55.579Z,25.299999
2019-03-30T05:50:55.639Z,25.799999
2019-03-30T05:51:55.682Z,25.200001
2019-03-30T05:52:55.765Z,24.799999
2019-03-30T05:53:55.850Z,25.5
2019-03-30T05:54:55.943Z,23.5
2019-03-30T05:55:56.004Z,24.1
2019-03-30T05:56:56.053Z,25.5
2019-03-30T05:57:56.143Z,24.6
2019-03-30T05:58:56.188Z,23.1
2019-03-30T05:59:56.337Z,24.200001
2019-03-30T06:00:56.267Z,22.200001
2019-03-30T06:01:56.309Z,22.799999
2019-03-30T06:02:56.378Z,23.6
2019-03-30T06:03:56.420Z,24.9
2019-03-30T06:04:58.561Z,24.799999
2019-03-30T06:05:56.574Z,22.9
2019-03-30T06:06:56.676Z,22.299999
2019-03-30T06:07:56.769Z,22.200001
2019-03-30T06:08:56.858Z,22.299999
2019-03-30T06:09:56.924Z,23.200001
2019-03-30T06:10:56.977Z,22.700001
2019-03-30T06:11:57.042Z,21.700001
2019-03-30T06:12:57.116Z,22.299999
2019-03-30T06:13:57.181Z,22
2019-03-30T06:14:57.238Z,21.4
2019-03-30T06:15:57.304Z,21.200001
2019-03-30T06:16:57.359Z,21.299999
2019-03-30T06:17:57.437Z,21.9
2019-03-30T06:18:57.477Z,21.200001
2019-03-30T06:19:57.588Z,21.9
2019-03-30T06:20:57.643Z,20.799999
2019-03-30T06:21:57.718Z,22.4
2019-03-30T06:22:57.843Z,20.6
2019-03-30T06:23:57.891Z,21.4
2019-03-30T06:24:57.972Z,20.700001
2019-03-30T06:25:58.038Z,21.1
2019-03-30T06:26:58.102Z,19.6
2019-03-30T06:27:58.225Z,20
2019-03-30T06:28:58.282Z,20.1
2019-03-30T06:29:58.326Z,20
2019-03-30T06:30:58.375Z,19.799999
2019-03-30T06:31:58.428Z,19.9
2019-03-30T06:32:58.540Z,20.4
2019-03-30T06:33:58.590Z,19.200001
2019-03-30T06:34:58.623Z,19.200001
2019-03-30T06:35:58.681Z,21.1
2019-03-30T06:36:58.748Z,19.700001
2019-03-30T06:37:58.824Z,18.700001
2019-03-30T06:38:58.874Z,18.799999
2019-03-30T06:39:58.924Z,17.6
2019-03-30T06:40:58.977Z,18.5
2019-03-30T06:41:59.014Z,18.4
2019-03-30T06:42:59.117Z,18.700001
2019-03-30T06:43:59.161Z,17.6
2019-03-30T06:44:59.220Z,17.5
2019-03-30T06:45:59.269Z,17.6
2019-03-30T06:46:59.604Z,18.200001
2019-03-30T06:47:59.347Z,17.1
2019-03-30T06:48:59.391Z,16.700001
2019-03-30T06:49:59.433Z,17
2019-03-30T06:50:59.481Z,17.299999
2019-03-30T06:51:59.519Z,17.1
2019-03-30T06:52:59.859Z,17.200001
2019-03-30T06:53:59.573Z,16.9
2019-03-30T06:54:59.640Z,17.4
2019-03-30T06:55:59.709Z,17.200001
2019-03-30T06:56:59.791Z,17.299999
2019-03-30T06:57:59.893Z,17.5
2019-03-30T06:58:59.971Z,16.200001
2019-03-30T07:00:00.012Z,16.6
2019-03-30T07:01:00.082Z,16
2019-03-30T07:02:00.127Z,15.9
2019-03-30T07:03:00.220Z,16.299999
2019-03-30T07:04:00.272Z,16.1
2019-03-30T07:05:00.369Z,16.9
2019-03-30T07:06:00.414Z,16.9
2019-03-30T07:07:00.451Z,16.799999
2019-03-30T07:08:00.517Z,16.799999
2019-03-30T07:09:00.626Z,16.700001
2019-03-30T07:10:00.699Z,16.299999
2019-03-30T07:11:00.780Z,16.799999
2019-03-30T07:12:00.838Z,16.1
2019-03-30T07:13:00.879Z,16.200001
2019-03-30T07:14:00.981Z,16
2019-03-30T07:15:01.097Z,15.9
2019-03-30T07:16:01.124Z,15.8
2019-03-30T07:17:01.814Z,15.5
2019-03-30T07:18:01.235Z,15.9
2019-03-30T07:19:01.328Z,15.4
2019-03-30T07:20:01.403Z,15.2
2019-03-30T07:21:01.457Z,15.3
2019-03-30T07:22:01.506Z,15.5
2019-03-30T07:23:11.562Z,14.5
2019-03-30T07:24:02.606Z,14.2
2019-03-30T07:25:01.671Z,14.7
2019-03-30T07:26:01.733Z,15.1
2019-03-30T07:27:01.790Z,14.9
2019-03-30T07:28:01.845Z,14.6
2019-03-30T07:29:01.938Z,14.3
2019-03-30T07:30:01.993Z,14.9
2019-03-30T07:31:03.022Z,14.8
2019-03-30T07:32:02.077Z,15
2019-03-30T07:33:02.126Z,14.4
2019-03-30T07:34:02.216Z,14.5
2019-03-30T07:35:02.280Z,14.7
2019-03-30T07:36:02.383Z,14.5
2019-03-30T07:37:02.444Z,14.4
2019-03-30T07:38:02.533Z,14.3
2019-03-30T07:39:02.596Z,14.1
2019-03-30T07:40:02.698Z,14.9
2019-03-30T07:41:02.756Z,14.6
2019-03-30T07:42:02.840Z,14.4
2019-03-30T07:43:02.896Z,14.2
2019-03-30T07:44:02.978Z,14.3
2019-03-30T07:45:03.065Z,14.5
2019-03-30T07:46:03.113Z,14.3
2019-03-30T07:47:03.166Z,14.9
2019-03-30T07:48:03.254Z,13.9
2019-03-30T07:49:03.339Z,14.1
2019-03-30T07:50:03.437Z,14.2
2019-03-30T07:51:03.534Z,15.1
2019-03-30T07:52:03.582Z,14
2019-03-30T07:53:03.642Z,14.3
2019-03-30T07:54:03.718Z,13.7
2019-03-30T07:55:03.875Z,14
2019-03-30T07:56:08.457Z,14
2019-03-30T07:57:14.938Z,14.1
2019-03-30T07:58:04.942Z,14.9
2019-03-30T07:59:03.991Z,14.7
2019-03-30T08:00:04.038Z,13.9
2019-03-30T08:01:04.092Z,14.3
2019-03-30T08:02:04.150Z,13.7
2019-03-30T08:03:04.198Z,14
2019-03-30T08:04:04.287Z,14.2
2019-03-30T08:05:04.332Z,13.9
2019-03-30T08:06:04.381Z,14.4
2019-03-30T08:07:04.424Z,13.9
2019-03-30T08:08:04.500Z,14.3
2019-03-30T08:09:04.590Z,14.4
2019-03-30T08:10:04.638Z,14.4
2019-03-30T08:11:04.702Z,13.8
2019-03-30T08:12:04.779Z,13.8
2019-03-30T08:13:04.834Z,13.3
2019-03-30T08:14:05.114Z,13.3
2019-03-30T08:15:04.993Z,13.9
2019-03-30T08:16:05.099Z,13.7
2019-03-30T08:17:05.177Z,13.3
2019-03-30T08:18:05.271Z,13.7
2019-03-30T08:19:05.478Z,13.5
2019-03-30T08:20:05.449Z,13.6
2019-03-30T08:21:05.511Z,13.4
2019-03-30T08:22:06.533Z,13.1
2019-03-30T08:23:05.540Z,12.9
2019-03-30T08:24:06.709Z,13.5
2019-03-30T08:25:05.740Z,13
2019-03-30T08:26:05.791Z,13.3
2019-03-30T08:27:05.818Z,13
2019-03-30T08:28:05.877Z,12.9
2019-03-30T08:29:06.059Z,12.9
2019-03-30T08:30:05.888Z,13.4
2019-03-30T08:31:07.026Z,13.4
2019-03-30T08:32:05.923Z,13.3
2019-03-30T08:33:05.961Z,12.2
2019-03-30T08:34:06.076Z,13.1
2019-03-30T08:35:06.073Z,13.4
2019-03-30T08:36:06.180Z,13
2019-03-30T08:37:06.153Z,14.7
2019-03-30T08:38:06.230Z,13.9
2019-03-30T08:39:06.311Z,14.1
2019-03-30T08:40:06.352Z,13.4
2019-03-30T08:41:06.397Z,13.5
2019-03-30T08:42:06.405Z,14.9
2019-03-30T08:43:06.428Z,15.8
2019-03-30T08:44:06.558Z,13
2019-03-30T08:45:06.590Z,12.9
2019-03-30T08:46:06.586Z,13.9
2019-03-30T08:47:06.625Z,13.4
2019-03-30T08:48:06.675Z,13.9
2019-03-30T08:49:06.728Z,14.4
2019-03-30T08:50:06.758Z,14.3
2019-03-30T08:51:06.837Z,14.6
2019-03-30T08:52:06.864Z,14
2019-03-30T08:53:06.932Z,15.1
2019-03-30T08:54:07.011Z,13.2
2019-03-30T08:55:07.023Z,14.5
2019-03-30T08:56:07.075Z,16.700001
2019-03-30T08:57:07.102Z,17.299999
2019-03-30T08:58:08.239Z,14.8
2019-03-30T08:59:07.374Z,18.4
2019-03-30T09:00:07.435Z,14.3
2019-03-30T09:01:07.442Z,14.8
2019-03-30T09:02:07.516Z,36.099998
2019-03-30T09:03:07.602Z,14.9
2019-03-30T09:04:07.656Z,15.3
2019-03-30T09:05:07.710Z,15.4
2019-03-30T09:06:07.729Z,14.8
2019-03-30T09:07:07.742Z,15.3
2019-03-30T09:08:07.740Z,14.5
2019-03-30T09:09:07.868Z,14.8
2019-03-30T09:10:07.949Z,14.6
2019-03-30T09:11:07.951Z,14.7
2019-03-30T09:12:07.975Z,14.5
2019-03-30T09:13:08.035Z,14.4
2019-03-30T09:14:09.041Z,14.3
2019-03-30T09:15:08.208Z,14.8
2019-03-30T09:16:08.246Z,14.4
2019-03-30T09:17:08.267Z,14.6
2019-03-30T09:18:08.427Z,14.9
2019-03-30T09:19:08.468Z,14.4
2019-03-30T09:20:08.520Z,14
2019-03-30T09:21:08.551Z,14.7
2019-03-30T09:22:08.577Z,16.4
2019-03-30T09:23:08.615Z,13.2
2019-03-30T09:24:10.172Z,13.9
2019-03-30T09:25:08.818Z,13.8
2019-03-30T09:26:08.881Z,17.700001
2019-03-30T09:27:08.904Z,13.1
2019-03-30T09:28:08.958Z,14.3
2019-03-30T09:29:08.978Z,13
2019-03-30T09:30:09.027Z,12
2019-03-30T09:31:09.049Z,12.8
2019-03-30T09:32:14.521Z,12.9
2019-03-30T09:33:10.190Z,13.6
2019-03-30T09:34:09.194Z,13.8
2019-03-30T09:35:09.277Z,13.6
2019-03-30T09:36:09.340Z,14.9
2019-03-30T09:37:09.427Z,13.9
2019-03-30T09:38:09.511Z,34
2019-03-30T09:39:10.571Z,15.7
2019-03-30T09:40:09.602Z,19
2019-03-30T09:41:09.650Z,15.2
2019-03-30T09:42:09.689Z,15.2
2019-03-30T09:43:09.704Z,14.9
2019-03-30T09:44:09.741Z,14.3
2019-03-30T09:45:09.784Z,17
2019-03-30T09:46:10.858Z,18.4
2019-03-30T09:47:09.908Z,14.5
2019-03-30T09:48:09.958Z,14.2
2019-03-30T09:49:10.125Z,14.5
2019-03-30T09:50:10.179Z,14.8
2019-03-30T09:51:10.240Z,14.4
2019-03-30T09:52:10.359Z,14.6
2019-03-30T09:53:10.514Z,15.9
2019-03-30T09:54:23.018Z,18.1
2019-03-30T09:55:11.641Z,14.5
2019-03-30T09:56:10.734Z,13.9
2019-03-30T09:57:10.709Z,19.299999
2019-03-30T09:58:10.764Z,13.6
2019-03-30T09:59:11.727Z,13.8
2019-03-30T10:00:09.958Z,13.9
2019-03-30T10:01:11.061Z,13.6
2019-03-30T10:02:11.095Z,14.5
2019-03-30T10:03:11.116Z,13.6
2019-03-30T10:04:11.140Z,13.4
2019-03-30T10:05:11.221Z,13
2019-03-30T10:06:11.236Z,12.7
2019-03-30T10:07:11.342Z,13.2
2019-03-30T10:08:11.421Z,13.4
2019-03-30T10:09:11.452Z,13.1
2019-03-30T10:10:11.520Z,13.2
2019-03-30T10:11:11.579Z,12.8
2019-03-30T10:12:11.736Z,13.5
2019-03-30T10:13:11.777Z,13.2
2019-03-30T10:14:11.897Z,13.9
2019-03-30T10:15:12.038Z,15.6
2019-03-30T10:16:11.955Z,17.9
2019-03-30T10:17:12.084Z,13.1
2019-03-30T10:18:12.062Z,15.5
2019-03-30T10:19:12.138Z,12.3
2019-03-30T10:20:12.310Z,15.1
2019-03-30T10:21:12.444Z,12.7
2019-03-30T10:22:12.526Z,12.8
2019-03-30T10:23:12.488Z,14.1
2019-03-30T10:24:12.515Z,12.8
2019-03-30T10:25:12.613Z,12.6
2019-03-30T10:26:12.677Z,12.6
2019-03-30T10:27:12.690Z,11.8
2019-03-30T10:28:12.719Z,10.8
2019-03-30T10:29:12.881Z,11.3
2019-03-30T10:30:13.019Z,11.2
2019-03-30T10:31:13.097Z,9.9
2019-03-30T10:32:13.077Z,10.2
2019-03-30T10:33:13.236Z,12.9
2019-03-30T10:34:13.386Z,10.8
2019-03-30T10:35:13.602Z,11
2019-03-30T10:36:13.546Z,11.2
2019-03-30T10:37:13.559Z,11
2019-03-30T10:38:13.641Z,11.2
2019-03-30T10:39:13.786Z,27.9
2019-03-30T10:40:13.894Z,11.1
2019-03-30T10:41:13.968Z,13.7
2019-03-30T10:42:13.967Z,11.4
2019-03-30T10:43:14.096Z,10.3
2019-03-30T10:44:14.102Z,11.4
2019-03-30T10:45:14.188Z,9.2
2019-03-30T10:46:14.180Z,10.3
2019-03-30T10:47:14.317Z,15.8
2019-03-30T10:48:14.451Z,10.3
2019-03-30T10:49:14.473Z,11.1
2019-03-30T10:50:14.621Z,12.8
2019-03-30T10:51:14.641Z,10.9
2019-03-30T10:52:14.802Z,10.8
2019-03-30T10:53:14.831Z,10.2
2019-03-30T10:54:14.827Z,13.3
2019-03-30T10:55:15.035Z,13.2
2019-03-30T10:56:15.014Z,9.9
2019-03-30T10:57:15.105Z,9.9
2019-03-30T10:58:15.126Z,11.1
2019-03-30T10:59:15.263Z,10
2019-03-30T11:00:15.631Z,15.9
2019-03-30T11:01:15.461Z,9.4
2019-03-30T11:02:15.566Z,10.1
2019-03-30T11:03:15.706Z,11.7
2019-03-30T11:04:15.792Z,10
2019-03-30T11:05:15.832Z,10.5
2019-03-30T11:06:16.011Z,9.7
2019-03-30T11:07:16.092Z,18.200001
2019-03-30T11:08:16.118Z,10.3
2019-03-30T11:09:16.103Z,10.6
2019-03-30T11:10:16.205Z,9.8
2019-03-30T11:11:16.186Z,9.8
2019-03-30T11:12:16.230Z,9.4
2019-03-30T11:13:16.365Z,10.4
2019-03-30T11:14:16.366Z,10.2
2019-03-30T11:15:16.386Z,10.4
2019-03-30T11:16:16.393Z,10.2
2019-03-30T11:17:19.203Z,11.4
2019-03-30T11:18:16.755Z,10.8
2019-03-30T11:19:16.799Z,10.6
2019-03-30T11:20:16.911Z,10.9
2019-03-30T11:21:16.934Z,10.6
2019-03-30T11:22:17.117Z,10.8
2019-03-30T11:23:17.104Z,11.4
2019-03-30T11:24:17.256Z,11.2
2019-03-30T11:25:17.419Z,11.7
2019-03-30T11:26:17.478Z,11.9
2019-03-30T11:27:17.482Z,11.6
2019-03-30T11:28:17.466Z,11.9
2019-03-30T11:29:17.641Z,11.6
2019-03-30T11:30:17.790Z,11.9
2019-03-30T11:31:17.836Z,11.7
2019-03-30T11:32:17.896Z,11.8
2019-03-30T11:33:17.907Z,11.9
2019-03-30T11:34:17.900Z,11.8
2019-03-30T11:35:17.906Z,11.6
2019-03-30T11:36:18.659Z,11.9
2019-03-30T11:37:17.918Z,11.3
2019-03-30T11:38:17.962Z,11.1
2019-03-30T11:39:17.992Z,10.6
2019-03-30T11:40:17.967Z,9.7
2019-03-30T11:41:18.103Z,8.7
2019-03-30T11:42:18.228Z,8.5
2019-03-30T11:43:18.298Z,8.5
2019-03-30T11:44:18.678Z,7.9
2019-03-30T11:45:18.390Z,8
2019-03-30T11:46:18.638Z,9.8
2019-03-30T11:47:18.574Z,9.1
2019-03-30T11:48:18.780Z,9.8
2019-03-30T11:49:18.849Z,9.5
2019-03-30T11:50:19.048Z,10.2
2019-03-30T11:51:19.059Z,9.6
2019-03-30T11:52:19.082Z,9.6
2019-03-30T11:53:19.073Z,9.7
2019-03-30T11:54:19.192Z,9.4
2019-03-30T11:55:21.925Z,9.6
2019-03-30T11:56:20.396Z,9.6
2019-03-30T11:57:19.373Z,10.3
2019-03-30T11:58:19.529Z,10.8
2019-03-30T11:59:19.680Z,11.2
2019-03-30T12:00:19.883Z,11.5
2019-03-30T12:01:21.735Z,11.5
2019-03-30T12:02:27.611Z,12.5
2019-03-30T12:03:21.046Z,11.9
2019-03-30T12:04:20.020Z,11.5
2019-03-30T12:05:20.171Z,11.7
2019-03-30T12:06:20.348Z,11.6
2019-03-30T12:07:20.409Z,11.6
2019-03-30T12:08:20.407Z,11.4
2019-03-30T12:09:20.542Z,11.8
2019-03-30T12:10:20.605Z,11.2
2019-03-30T12:11:20.721Z,11.7
2019-03-30T12:12:20.702Z,12.4
2019-03-30T12:13:20.869Z,11.4
2019-03-30T12:14:20.923Z,11.4
2019-03-30T12:15:21.051Z,12.4
2019-03-30T12:16:21.165Z,12.1
2019-03-30T12:17:21.149Z,12.4
2019-03-30T12:18:21.511Z,11
2019-03-30T12:19:21.838Z,10.8
2019-03-30T12:20:21.362Z,10.5
2019-03-30T12:21:21.359Z,10.1
2019-03-30T12:22:21.479Z,10.1
2019-03-30T12:23:21.558Z,10.4
2019-03-30T12:24:21.671Z,9.8
2019-03-30T12:25:34.442Z,10
2019-03-30T12:26:22.913Z,10.4
2019-03-30T12:27:22.019Z,10.1
2019-03-30T12:28:21.995Z,9.8
2019-03-30T12:29:22.062Z,9.8
2019-03-30T12:30:22.122Z,9.1
2019-03-30T12:31:22.237Z,9.1
2019-03-30T12:32:22.295Z,8.2
2019-03-30T12:33:22.408Z,9.1
2019-03-30T12:34:22.476Z,9.6
2019-03-30T12:35:22.544Z,9.3
2019-03-30T12:36:23.618Z,9.2
2019-03-30T12:37:22.685Z,10
2019-03-30T12:38:22.711Z,10.3
2019-03-30T12:39:22.960Z,10.6
2019-03-30T12:40:23.098Z,9.7
2019-03-30T12:41:23.196Z,10.3
2019-03-30T12:42:23.257Z,10.7
2019-03-30T12:43:23.338Z,10
2019-03-30T12:44:23.297Z,9.6
2019-03-30T12:45:23.371Z,9.5
2019-03-30T12:46:23.529Z,9.8
2019-03-30T12:47:23.544Z,9.6
2019-03-30T12:48:23.610Z,8.7
2019-03-30T12:49:23.725Z,9.3
2019-03-30T12:50:23.813Z,9.6
2019-03-30T12:51:23.935Z,9.3
2019-03-30T12:52:26.469Z,9.5